sensor_id;sensor_type;location;lat;lon;timestamp;pressure;altitude;pressure_sealevel;temperature;humidity
60258;BME280;46115;44.484;11.314;2022-08-06T00:00:10;99999.50;;;27.35;46.79
60258;BME280;46115;44.484;11.314;2022-08-06T00:04:13;99949.72;;;27.00;46.92
60258;BME280;46115;44.484;11.314;2022-08-06T00:08:15;99989.72;;;27.13;47.27
60258;BME280;46115;44.484;11.314;2022-08-06T00:12:18;100024.22;;;27.19;47.70
60258;BME280;46115;44.484;11.314;2022-08-06T00:16:22;100022.28;;;27.13;47.60
60258;BME280;46115;44.484;11.314;2022-08-06T00:20:25;100023.75;;;27.16;47.32
60258;BME280;46115;44.484;11.314;2022-08-06T00:24:28;100019.56;;;27.13;47.10
60258;BME280;46115;44.484;11.314;2022-08-06T00:28:30;100030.00;;;27.38;46.87
60258;BME280;46115;44.484;11.314;2022-08-06T00:32:34;100042.78;;;27.01;48.03
60258;BME280;46115;44.484;11.314;2022-08-06T00:36:37;100037.38;;;27.22;47.19
60258;BME280;46115;44.484;11.314;2022-08-06T00:40:40;100040.81;;;27.31;46.93
60258;BME280;46115;44.484;11.314;2022-08-06T00:44:43;100034.53;;;27.52;46.18
60258;BME280;46115;44.484;11.314;2022-08-06T00:48:46;100031.97;;;27.22;47.25
60258;BME280;46115;44.484;11.314;2022-08-06T00:52:49;100024.78;;;27.15;47.69
60258;BME280;46115;44.484;11.314;2022-08-06T00:56:51;100024.94;;;27.07;47.93
60258;BME280;46115;44.484;11.314;2022-08-06T01:00:54;100028.09;;;27.10;47.34
60258;BME280;46115;44.484;11.314;2022-08-06T01:04:58;100015.94;;;27.27;47.00
60258;BME280;46115;44.484;11.314;2022-08-06T01:09:00;100024.53;;;27.31;46.69
60258;BME280;46115;44.484;11.314;2022-08-06T01:13:03;100026.34;;;27.24;46.73
60258;BME280;46115;44.484;11.314;2022-08-06T01:17:11;100029.97;;;27.10;47.37
60258;BME280;46115;44.484;11.314;2022-08-06T01:21:36;100024.34;;;26.96;47.80
60258;BME280;46115;44.484;11.314;2022-08-06T01:26:02;100032.91;;;26.79;48.61
60258;BME280;46115;44.484;11.314;2022-08-06T01:30:17;100039.50;;;26.55;49.18
60258;BME280;46115;44.484;11.314;2022-08-06T01:34:23;100036.56;;;26.71;48.78
60258;BME280;46115;44.484;11.314;2022-08-06T01:38:31;100029.16;;;26.80;48.40
60258;BME280;46115;44.484;11.314;2022-08-06T01:42:35;100024.34;;;26.96;47.81
60258;BME280;46115;44.484;11.314;2022-08-06T01:46:43;100005.72;;;26.72;48.00
60258;BME280;46115;44.484;11.314;2022-08-06T01:50:48;100025.19;;;26.61;49.12
60258;BME280;46115;44.484;11.314;2022-08-06T01:54:52;100018.09;;;26.45;49.42
60258;BME280;46115;44.484;11.314;2022-08-06T01:59:00;100030.97;;;26.58;49.11
60258;BME280;46115;44.484;11.314;2022-08-06T02:03:08;100029.38;;;26.63;48.90
60258;BME280;46115;44.484;11.314;2022-08-06T02:07:13;100023.53;;;26.45;49.29
60258;BME280;46115;44.484;11.314;2022-08-06T02:11:16;100029.91;;;26.37;49.50
60258;BME280;46115;44.484;11.314;2022-08-06T02:15:23;100020.59;;;26.17;50.01
60258;BME280;46115;44.484;11.314;2022-08-06T02:19:28;100028.72;;;26.02;50.68
60258;BME280;46115;44.484;11.314;2022-08-06T02:23:32;100028.34;;;26.05;50.90
60258;BME280;46115;44.484;11.314;2022-08-06T02:27:35;100026.09;;;25.94;51.10
60258;BME280;46115;44.484;11.314;2022-08-06T02:31:39;100022.25;;;25.74;51.84
60258;BME280;46115;44.484;11.314;2022-08-06T02:35:47;100017.66;;;25.74;51.99
60258;BME280;46115;44.484;11.314;2022-08-06T02:39:53;100007.56;;;25.45;52.67
60258;BME280;46115;44.484;11.314;2022-08-06T02:44:01;100010.78;;;25.64;52.26
60258;BME280;46115;44.484;11.314;2022-08-06T02:48:07;100020.09;;;25.69;52.03
60258;BME280;46115;44.484;11.314;2022-08-06T02:52:18;100022.53;;;25.56;52.43
60258;BME280;46115;44.484;11.314;2022-08-06T02:56:22;100023.94;;;25.29;53.09
60258;BME280;46115;44.484;11.314;2022-08-06T03:00:27;99990.25;;;25.32;52.36
60258;BME280;46115;44.484;11.314;2022-08-06T03:04:32;100004.69;;;25.47;52.23
60258;BME280;46115;44.484;11.314;2022-08-06T03:08:37;100022.81;;;25.61;52.15
60258;BME280;46115;44.484;11.314;2022-08-06T03:12:40;100029.78;;;25.41;52.83
60258;BME280;46115;44.484;11.314;2022-08-06T03:16:44;100020.69;;;25.34;52.92
60258;BME280;46115;44.484;11.314;2022-08-06T03:20:48;100027.66;;;25.51;52.62
60258;BME280;46115;44.484;11.314;2022-08-06T03:24:54;100014.84;;;25.45;52.42
60258;BME280;46115;44.484;11.314;2022-08-06T03:28:59;100021.28;;;25.44;52.47
60258;BME280;46115;44.484;11.314;2022-08-06T03:33:04;100016.28;;;25.56;52.51
60258;BME280;46115;44.484;11.314;2022-08-06T03:37:07;100017.44;;;25.38;52.71
60258;BME280;46115;44.484;11.314;2022-08-06T03:41:13;100009.56;;;25.29;53.21
60258;BME280;46115;44.484;11.314;2022-08-06T03:45:15;100028.75;;;25.42;52.88
60258;BME280;46115;44.484;11.314;2022-08-06T03:49:22;100021.78;;;25.62;52.34
60258;BME280;46115;44.484;11.314;2022-08-06T03:53:30;100027.44;;;25.38;53.00
60258;BME280;46115;44.484;11.314;2022-08-06T03:57:39;100012.06;;;25.53;52.33
60258;BME280;46115;44.484;11.314;2022-08-06T04:01:43;100027.84;;;25.27;53.23
60258;BME280;46115;44.484;11.314;2022-08-06T04:05:49;100026.41;;;25.16;53.71
60258;BME280;46115;44.484;11.314;2022-08-06T04:09:52;100020.81;;;25.17;53.85
60258;BME280;46115;44.484;11.314;2022-08-06T04:13:56;100006.25;;;24.87;54.19
60258;BME280;46115;44.484;11.314;2022-08-06T04:18:00;100027.22;;;24.85;54.67
60258;BME280;46115;44.484;11.314;2022-08-06T04:22:03;100021.41;;;24.97;54.65
60258;BME280;46115;44.484;11.314;2022-08-06T04:26:07;100020.69;;;25.11;54.11
60258;BME280;46115;44.484;11.314;2022-08-06T04:30:13;100033.44;;;25.25;53.64
60258;BME280;46115;44.484;11.314;2022-08-06T04:34:20;100030.38;;;25.05;54.36
60258;BME280;46115;44.484;11.314;2022-08-06T04:38:23;100040.09;;;24.83;54.95
60258;BME280;46115;44.484;11.314;2022-08-06T04:42:27;100042.44;;;25.17;54.09
60258;BME280;46115;44.484;11.314;2022-08-06T04:46:32;100053.38;;;25.24;54.04
60258;BME280;46115;44.484;11.314;2022-08-06T04:50:36;100048.47;;;25.50;53.26
60258;BME280;46115;44.484;11.314;2022-08-06T04:54:40;100038.47;;;25.28;53.60
60258;BME280;46115;44.484;11.314;2022-08-06T04:58:42;100053.31;;;25.55;52.93
60258;BME280;46115;44.484;11.314;2022-08-06T05:02:46;100049.59;;;25.79;52.41
60258;BME280;46115;44.484;11.314;2022-08-06T05:06:53;100043.53;;;25.77;52.20
60258;BME280;46115;44.484;11.314;2022-08-06T05:11:02;100060.44;;;25.94;51.80
60258;BME280;46115;44.484;11.314;2022-08-06T05:15:09;100061.22;;;26.02;51.89
60258;BME280;46115;44.484;11.314;2022-08-06T05:19:17;100057.56;;;25.95;51.60
60258;BME280;46115;44.484;11.314;2022-08-06T05:23:25;100048.25;;;26.13;51.34
60258;BME280;46115;44.484;11.314;2022-08-06T05:27:29;100068.44;;;26.25;51.40
60258;BME280;46115;44.484;11.314;2022-08-06T05:31:34;100066.13;;;26.36;51.34
60258;BME280;46115;44.484;11.314;2022-08-06T05:35:38;100068.75;;;26.59;50.33
60258;BME280;46115;44.484;11.314;2022-08-06T05:39:41;100075.81;;;27.62;47.85
60258;BME280;46115;44.484;11.314;2022-08-06T05:43:43;100082.72;;;26.92;49.47
60258;BME280;46115;44.484;11.314;2022-08-06T05:47:46;100081.25;;;27.26;49.17
60258;BME280;46115;44.484;11.314;2022-08-06T05:51:53;100083.22;;;27.53;48.18
60258;BME280;46115;44.484;11.314;2022-08-06T05:56:02;100085.63;;;27.42;48.63
60258;BME280;46115;44.484;11.314;2022-08-06T06:00:08;100090.97;;;27.56;48.36
60258;BME280;46115;44.484;11.314;2022-08-06T06:04:12;100085.38;;;27.79;48.34
60258;BME280;46115;44.484;11.314;2022-08-06T06:08:17;100083.84;;;27.98;47.75
60258;BME280;46115;44.484;11.314;2022-08-06T06:12:21;100096.69;;;28.39;46.92
60258;BME280;46115;44.484;11.314;2022-08-06T06:16:27;100095.13;;;28.85;46.27
60258;BME280;46115;44.484;11.314;2022-08-06T06:20:36;100094.44;;;28.83;46.25
60258;BME280;46115;44.484;11.314;2022-08-06T06:24:48;100097.97;;;29.18;45.50
60258;BME280;46115;44.484;11.314;2022-08-06T06:28:57;100067.53;;;28.95;45.48
60258;BME280;46115;44.484;11.314;2022-08-06T06:33:07;100104.69;;;29.29;44.87
60258;BME280;46115;44.484;11.314;2022-08-06T06:37:24;100112.53;;;29.59;44.30
60258;BME280;46115;44.484;11.314;2022-08-06T06:41:33;100097.88;;;29.60;43.69
60258;BME280;46115;44.484;11.314;2022-08-06T06:45:44;100110.03;;;30.30;42.22
60258;BME280;46115;44.484;11.314;2022-08-06T06:49:54;100105.16;;;30.71;41.43
60258;BME280;46115;44.484;11.314;2022-08-06T06:53:57;100105.19;;;31.86;38.96
60258;BME280;46115;44.484;11.314;2022-08-06T06:58:06;100114.25;;;32.36;38.52
60258;BME280;46115;44.484;11.314;2022-08-06T07:02:16;100096.72;;;33.47;35.80
60258;BME280;46115;44.484;11.314;2022-08-06T07:06:21;100127.34;;;36.05;31.95
60258;BME280;46115;44.484;11.314;2022-08-06T07:10:24;100128.19;;;36.77;30.41
60258;BME280;46115;44.484;11.314;2022-08-06T07:14:31;100116.97;;;35.61;32.04
60258;BME280;46115;44.484;11.314;2022-08-06T07:18:35;100087.50;;;36.07;30.79
60258;BME280;46115;44.484;11.314;2022-08-06T07:22:40;100122.38;;;36.96;29.88
60258;BME280;46115;44.484;11.314;2022-08-06T07:26:45;100124.72;;;37.53;29.31
60258;BME280;46115;44.484;11.314;2022-08-06T07:30:49;100104.47;;;38.01;28.43
60258;BME280;46115;44.484;11.314;2022-08-06T07:34:52;100114.44;;;38.44;27.54
60258;BME280;46115;44.484;11.314;2022-08-06T07:39:04;100129.66;;;40.12;25.31
60258;BME280;46115;44.484;11.314;2022-08-06T07:43:12;100108.91;;;40.00;25.93
60258;BME280;46115;44.484;11.314;2022-08-06T07:47:19;100123.53;;;40.51;25.03
60258;BME280;46115;44.484;11.314;2022-08-06T07:51:25;100121.88;;;41.20;23.88
60258;BME280;46115;44.484;11.314;2022-08-06T07:55:29;100132.03;;;42.76;21.41
60258;BME280;46115;44.484;11.314;2022-08-06T07:59:33;100152.56;;;46.12;18.01
60258;BME280;46115;44.484;11.314;2022-08-06T08:03:37;100142.16;;;46.57;17.77
60258;BME280;46115;44.484;11.314;2022-08-06T08:07:57;100156.28;;;48.65;16.06
60258;BME280;46115;44.484;11.314;2022-08-06T08:12:00;100144.19;;;50.52;14.56
60258;BME280;46115;44.484;11.314;2022-08-06T08:16:04;100163.97;;;49.36;15.20
60258;BME280;46115;44.484;11.314;2022-08-06T08:20:09;100153.91;;;48.20;16.13
60258;BME280;46115;44.484;11.314;2022-08-06T08:24:13;100161.91;;;50.19;14.68
60258;BME280;46115;44.484;11.314;2022-08-06T08:28:17;100159.44;;;51.64;13.37
60258;BME280;46115;44.484;11.314;2022-08-06T08:32:20;100166.00;;;50.92;14.04
60258;BME280;46115;44.484;11.314;2022-08-06T08:36:24;100130.34;;;50.35;14.06
60258;BME280;46115;44.484;11.314;2022-08-06T08:40:28;100153.25;;;51.87;12.87
60258;BME280;46115;44.484;11.314;2022-08-06T08:44:31;100153.47;;;51.13;13.35
60258;BME280;46115;44.484;11.314;2022-08-06T08:48:34;100159.16;;;51.82;12.89
60258;BME280;46115;44.484;11.314;2022-08-06T08:52:41;100158.97;;;49.83;14.27
60258;BME280;46115;44.484;11.314;2022-08-06T08:56:46;100156.00;;;50.33;13.86
60258;BME280;46115;44.484;11.314;2022-08-06T09:00:49;100164.56;;;55.20;10.52
60258;BME280;46115;44.484;11.314;2022-08-06T09:04:52;100156.28;;;50.77;13.70
60258;BME280;46115;44.484;11.314;2022-08-06T09:08:57;100154.47;;;53.27;11.60
60258;BME280;46115;44.484;11.314;2022-08-06T09:13:04;100162.44;;;54.87;10.60
60258;BME280;46115;44.484;11.314;2022-08-06T09:17:06;100164.09;;;55.78;9.96
60258;BME280;46115;44.484;11.314;2022-08-06T09:21:09;100151.34;;;51.63;12.71
60258;BME280;46115;44.484;11.314;2022-08-06T09:25:37;100130.84;;;48.23;15.60
60258;BME280;46115;44.484;11.314;2022-08-06T09:29:48;100114.06;;;44.78;18.93
60258;BME280;46115;44.484;11.314;2022-08-06T09:33:56;100111.88;;;44.48;19.01
60258;BME280;46115;44.484;11.314;2022-08-06T09:38:01;100104.19;;;41.94;22.04
60258;BME280;46115;44.484;11.314;2022-08-06T09:42:05;100110.16;;;42.40;21.38
60258;BME280;46115;44.484;11.314;2022-08-06T09:46:08;100104.81;;;41.02;23.11
60258;BME280;46115;44.484;11.314;2022-08-06T09:50:10;100110.75;;;41.35;22.76
60258;BME280;46115;44.484;11.314;2022-08-06T09:54:14;100087.63;;;41.00;23.09
60258;BME280;46115;44.484;11.314;2022-08-06T09:58:33;100096.72;;;41.55;22.86
60258;BME280;46115;44.484;11.314;2022-08-06T10:02:36;100109.28;;;40.88;23.20
60258;BME280;46115;44.484;11.314;2022-08-06T10:06:50;100107.09;;;40.75;23.38
60258;BME280;46115;44.484;11.314;2022-08-06T10:10:53;100105.16;;;40.75;23.18
60258;BME280;46115;44.484;11.314;2022-08-06T10:15:00;100093.63;;;40.22;23.60
60258;BME280;46115;44.484;11.314;2022-08-06T10:19:02;100097.53;;;40.21;23.56
60258;BME280;46115;44.484;11.314;2022-08-06T10:23:17;100094.50;;;40.13;24.04
60258;BME280;46115;44.484;11.314;2022-08-06T10:27:22;100091.47;;;39.69;24.27
60258;BME280;46115;44.484;11.314;2022-08-06T10:31:26;100088.56;;;39.13;25.18
60258;BME280;46115;44.484;11.314;2022-08-06T10:35:29;100081.59;;;38.95;26.21
60258;BME280;46115;44.484;11.314;2022-08-06T10:39:34;100077.19;;;38.99;26.47
60258;BME280;46115;44.484;11.314;2022-08-06T10:43:40;100080.22;;;38.97;25.78
60258;BME280;46115;44.484;11.314;2022-08-06T10:47:46;100058.28;;;38.71;26.14
60258;BME280;46115;44.484;11.314;2022-08-06T10:51:49;100076.84;;;38.85;25.13
60258;BME280;46115;44.484;11.314;2022-08-06T10:55:51;100069.72;;;38.42;26.45
60258;BME280;46115;44.484;11.314;2022-08-06T10:59:55;100055.09;;;38.04;25.88
60258;BME280;46115;44.484;11.314;2022-08-06T11:04:10;100062.84;;;37.70;26.76
60258;BME280;46115;44.484;11.314;2022-08-06T11:08:38;100052.25;;;37.30;27.42
60258;BME280;46115;44.484;11.314;2022-08-06T11:12:49;100049.41;;;37.47;27.70
60258;BME280;46115;44.484;11.314;2022-08-06T11:16:57;100025.06;;;37.71;27.17
60258;BME280;46115;44.484;11.314;2022-08-06T11:21:01;100055.56;;;37.59;26.96
60258;BME280;46115;44.484;11.314;2022-08-06T11:25:05;100049.34;;;37.74;26.77
60258;BME280;46115;44.484;11.314;2022-08-06T11:29:10;100046.34;;;36.51;28.11
60258;BME280;46115;44.484;11.314;2022-08-06T11:33:15;100043.44;;;36.41;28.10
60258;BME280;46115;44.484;11.314;2022-08-06T11:37:43;100033.13;;;36.31;27.97
60258;BME280;46115;44.484;11.314;2022-08-06T11:41:49;100031.84;;;36.39;27.97
60258;BME280;46115;44.484;11.314;2022-08-06T11:46:22;100020.88;;;36.82;28.18
60258;BME280;46115;44.484;11.314;2022-08-06T11:50:25;100024.59;;;36.76;27.93
60258;BME280;46115;44.484;11.314;2022-08-06T11:54:30;100008.69;;;36.35;28.11
60258;BME280;46115;44.484;11.314;2022-08-06T11:58:33;100010.34;;;36.36;27.87
60258;BME280;46115;44.484;11.314;2022-08-06T12:02:54;100003.91;;;36.47;27.67
60258;BME280;46115;44.484;11.314;2022-08-06T12:07:18;100004.69;;;36.69;27.43
60258;BME280;46115;44.484;11.314;2022-08-06T12:11:28;99998.94;;;36.93;26.29
60258;BME280;46115;44.484;11.314;2022-08-06T12:15:35;99994.97;;;37.10;26.22
60258;BME280;46115;44.484;11.314;2022-08-06T12:19:42;99987.63;;;37.16;25.75
60258;BME280;46115;44.484;11.314;2022-08-06T12:23:49;99987.41;;;37.55;26.06
60258;BME280;46115;44.484;11.314;2022-08-06T12:27:56;99980.94;;;37.39;25.95
60258;BME280;46115;44.484;11.314;2022-08-06T12:31:58;99974.53;;;37.28;26.07
60258;BME280;46115;44.484;11.314;2022-08-06T12:36:01;99945.22;;;36.90;26.63
60258;BME280;46115;44.484;11.314;2022-08-06T12:40:07;99969.00;;;37.28;26.15
60258;BME280;46115;44.484;11.314;2022-08-06T12:44:32;99981.72;;;37.34;25.73
60258;BME280;46115;44.484;11.314;2022-08-06T12:48:35;99974.06;;;36.82;25.81
60258;BME280;46115;44.484;11.314;2022-08-06T12:52:38;99969.06;;;36.79;25.50
60258;BME280;46115;44.484;11.314;2022-08-06T12:56:41;99979.13;;;36.47;25.58
60258;BME280;46115;44.484;11.314;2022-08-06T13:00:46;99953.63;;;36.57;25.20
60258;BME280;46115;44.484;11.314;2022-08-06T13:04:53;99964.09;;;35.77;26.53
60258;BME280;46115;44.484;11.314;2022-08-06T13:08:57;99978.97;;;36.37;25.85
60258;BME280;46115;44.484;11.314;2022-08-06T13:13:01;99965.94;;;36.76;25.09
60258;BME280;46115;44.484;11.314;2022-08-06T13:17:12;99976.50;;;35.97;26.35
60258;BME280;46115;44.484;11.314;2022-08-06T13:21:17;99975.81;;;36.28;25.37
60258;BME280;46115;44.484;11.314;2022-08-06T13:25:19;99976.44;;;36.30;26.60
60258;BME280;46115;44.484;11.314;2022-08-06T13:29:23;99967.97;;;36.80;26.17
60258;BME280;46115;44.484;11.314;2022-08-06T13:33:28;99966.09;;;37.13;25.60
60258;BME280;46115;44.484;11.314;2022-08-06T13:37:46;99958.56;;;37.30;25.88
60258;BME280;46115;44.484;11.314;2022-08-06T13:42:06;99952.50;;;37.33;25.05
60258;BME280;46115;44.484;11.314;2022-08-06T13:46:09;99947.06;;;37.43;24.92
60258;BME280;46115;44.484;11.314;2022-08-06T13:50:13;99947.00;;;37.06;25.53
60258;BME280;46115;44.484;11.314;2022-08-06T13:54:16;99938.97;;;36.51;26.15
60258;BME280;46115;44.484;11.314;2022-08-06T13:58:18;99922.56;;;36.61;25.99
60258;BME280;46115;44.484;11.314;2022-08-06T14:02:21;99920.66;;;36.40;26.20
60258;BME280;46115;44.484;11.314;2022-08-06T14:06:25;99912.50;;;36.45;26.19
60258;BME280;46115;44.484;11.314;2022-08-06T14:10:27;99917.00;;;36.78;25.74
60258;BME280;46115;44.484;11.314;2022-08-06T14:14:30;99913.78;;;36.64;25.81
60258;BME280;46115;44.484;11.314;2022-08-06T14:18:32;99918.72;;;36.62;26.31
60258;BME280;46115;44.484;11.314;2022-08-06T14:22:36;99923.16;;;36.41;25.69
60258;BME280;46115;44.484;11.314;2022-08-06T14:26:38;99921.25;;;36.42;25.82
60258;BME280;46115;44.484;11.314;2022-08-06T14:30:41;99926.75;;;36.20;25.38
60258;BME280;46115;44.484;11.314;2022-08-06T14:34:44;99899.03;;;36.05;25.73
60258;BME280;46115;44.484;11.314;2022-08-06T14:38:48;99906.28;;;36.33;26.04
60258;BME280;46115;44.484;11.314;2022-08-06T14:42:51;99908.63;;;36.02;26.07
60258;BME280;46115;44.484;11.314;2022-08-06T14:47:07;99913.28;;;36.02;25.75
60258;BME280;46115;44.484;11.314;2022-08-06T14:51:10;99904.72;;;36.20;25.90
60258;BME280;46115;44.484;11.314;2022-08-06T14:55:14;99902.88;;;36.47;25.14
60258;BME280;46115;44.484;11.314;2022-08-06T14:59:17;99897.06;;;36.44;25.32
60258;BME280;46115;44.484;11.314;2022-08-06T15:03:19;99900.91;;;36.70;25.36
60258;BME280;46115;44.484;11.314;2022-08-06T15:07:22;99901.91;;;36.37;25.68
60258;BME280;46115;44.484;11.314;2022-08-06T15:11:26;99899.28;;;36.03;24.76
60258;BME280;46115;44.484;11.314;2022-08-06T15:15:29;99901.47;;;36.01;25.75
60258;BME280;46115;44.484;11.314;2022-08-06T15:19:36;99881.44;;;36.28;25.91
60258;BME280;46115;44.484;11.314;2022-08-06T15:23:38;99884.38;;;36.70;25.94
60258;BME280;46115;44.484;11.314;2022-08-06T15:27:42;99888.13;;;36.80;24.95
60258;BME280;46115;44.484;11.314;2022-08-06T15:31:44;99896.00;;;36.77;25.08
60258;BME280;46115;44.484;11.314;2022-08-06T15:35:47;99888.72;;;36.88;24.91
60258;BME280;46115;44.484;11.314;2022-08-06T15:39:49;99890.88;;;37.12;24.53
60258;BME280;46115;44.484;11.314;2022-08-06T15:43:53;99883.56;;;37.28;24.51
60258;BME280;46115;44.484;11.314;2022-08-06T15:47:56;99881.72;;;37.39;23.98
60258;BME280;46115;44.484;11.314;2022-08-06T15:51:59;99880.75;;;37.23;24.34
60258;BME280;46115;44.484;11.314;2022-08-06T15:56:03;99899.16;;;36.37;25.79
60258;BME280;46115;44.484;11.314;2022-08-06T16:00:08;99845.25;;;36.14;26.20
60258;BME280;46115;44.484;11.314;2022-08-06T16:04:11;99881.50;;;36.33;25.87
60258;BME280;46115;44.484;11.314;2022-08-06T16:08:14;99877.41;;;36.13;26.16
60258;BME280;46115;44.484;11.314;2022-08-06T16:12:16;99870.38;;;36.22;26.38
60258;BME280;46115;44.484;11.314;2022-08-06T16:16:20;99862.06;;;36.17;26.92
60258;BME280;46115;44.484;11.314;2022-08-06T16:20:22;99868.59;;;36.33;28.55
60258;BME280;46115;44.484;11.314;2022-08-06T16:24:25;99878.94;;;35.82;29.71
60258;BME280;46115;44.484;11.314;2022-08-06T16:28:27;99886.00;;;35.78;30.37
60258;BME280;46115;44.484;11.314;2022-08-06T16:32:31;99884.38;;;35.27;31.63
60258;BME280;46115;44.484;11.314;2022-08-06T16:36:34;99870.34;;;35.07;32.32
60258;BME280;46115;44.484;11.314;2022-08-06T16:40:36;99880.97;;;35.03;32.47
60258;BME280;46115;44.484;11.314;2022-08-06T16:44:39;99906.81;;;34.74;33.13
60258;BME280;46115;44.484;11.314;2022-08-06T16:48:42;99893.63;;;34.59;33.17
60258;BME280;46115;44.484;11.314;2022-08-06T16:52:45;99881.06;;;34.63;32.93
60258;BME280;46115;44.484;11.314;2022-08-06T16:56:48;99915.34;;;34.60;32.86
60258;BME280;46115;44.484;11.314;2022-08-06T17:00:50;99915.06;;;34.74;32.34
60258;BME280;46115;44.484;11.314;2022-08-06T17:04:54;99937.75;;;34.40;33.73
60258;BME280;46115;44.484;11.314;2022-08-06T17:08:57;99938.06;;;32.74;36.32
60258;BME280;46115;44.484;11.314;2022-08-06T17:12:59;99941.94;;;32.36;36.96
60258;BME280;46115;44.484;11.314;2022-08-06T17:17:03;99958.50;;;32.71;35.72
60258;BME280;46115;44.484;11.314;2022-08-06T17:21:07;99963.16;;;32.52;36.55
60258;BME280;46115;44.484;11.314;2022-08-06T17:25:10;99979.13;;;32.55;36.38
60258;BME280;46115;44.484;11.314;2022-08-06T17:29:13;99991.63;;;32.33;37.11
60258;BME280;46115;44.484;11.314;2022-08-06T17:33:16;99996.50;;;32.24;36.47
60258;BME280;46115;44.484;11.314;2022-08-06T17:37:20;100011.94;;;32.19;35.87
60258;BME280;46115;44.484;11.314;2022-08-06T17:41:23;100018.38;;;32.06;36.30
60258;BME280;46115;44.484;11.314;2022-08-06T17:45:25;100037.59;;;32.18;36.53
60258;BME280;46115;44.484;11.314;2022-08-06T17:49:28;100035.78;;;32.12;36.94
60258;BME280;46115;44.484;11.314;2022-08-06T17:53:35;100049.81;;;31.72;37.65
60258;BME280;46115;44.484;11.314;2022-08-06T17:57:37;100078.00;;;32.16;37.08
60258;BME280;46115;44.484;11.314;2022-08-06T18:01:40;100090.81;;;31.97;37.24
60258;BME280;46115;44.484;11.314;2022-08-06T18:05:42;100110.41;;;31.94;37.19
60258;BME280;46115;44.484;11.314;2022-08-06T18:09:48;100117.75;;;32.18;37.01
60258;BME280;46115;44.484;11.314;2022-08-06T18:14:04;100112.53;;;31.60;39.62
60258;BME280;46115;44.484;11.314;2022-08-06T18:18:08;100126.56;;;31.71;41.04
60258;BME280;46115;44.484;11.314;2022-08-06T18:22:10;100136.97;;;31.80;41.76
60258;BME280;46115;44.484;11.314;2022-08-06T18:26:14;100143.72;;;31.40;42.59
60258;BME280;46115;44.484;11.314;2022-08-06T18:30:18;100144.56;;;31.40;42.34
60258;BME280;46115;44.484;11.314;2022-08-06T18:34:21;100145.50;;;31.27;42.56
60258;BME280;46115;44.484;11.314;2022-08-06T18:38:24;100143.41;;;31.10;41.85
60258;BME280;46115;44.484;11.314;2022-08-06T18:42:28;100155.78;;;31.19;41.36
60258;BME280;46115;44.484;11.314;2022-08-06T18:46:30;100165.06;;;31.04;41.85
60258;BME280;46115;44.484;11.314;2022-08-06T18:50:33;100179.34;;;31.07;41.47
60258;BME280;46115;44.484;11.314;2022-08-06T18:54:36;100183.31;;;31.24;41.16
60258;BME280;46115;44.484;11.314;2022-08-06T18:58:43;100202.88;;;31.01;41.83
60258;BME280;46115;44.484;11.314;2022-08-06T19:02:45;100214.84;;;31.07;41.43
60258;BME280;46115;44.484;11.314;2022-08-06T19:06:48;100221.63;;;30.58;42.46
60258;BME280;46115;44.484;11.314;2022-08-06T19:10:50;100235.06;;;30.59;42.63
60258;BME280;46115;44.484;11.314;2022-08-06T19:20:27;100229.38;;;30.21;43.32
60258;BME280;46115;44.484;11.314;2022-08-06T22:06:09;100375.97;;;28.87;46.16
60258;BME280;46115;44.484;11.314;2022-08-06T22:10:11;100370.53;;;28.87;46.18
60258;BME280;46115;44.484;11.314;2022-08-06T22:14:15;100373.84;;;28.68;49.12
60258;BME280;46115;44.484;11.314;2022-08-06T22:18:18;100360.19;;;28.40;50.74
60258;BME280;46115;44.484;11.314;2022-08-06T22:22:23;100388.19;;;28.55;51.84
60258;BME280;46115;44.484;11.314;2022-08-06T22:26:25;100378.13;;;28.35;53.35
60258;BME280;46115;44.484;11.314;2022-08-06T22:30:28;100369.72;;;28.15;55.13
60258;BME280;46115;44.484;11.314;2022-08-06T22:34:33;100365.06;;;28.45;54.37
60258;BME280;46115;44.484;11.314;2022-08-06T22:38:37;100368.59;;;28.24;54.65
60258;BME280;46115;44.484;11.314;2022-08-06T22:42:40;100368.66;;;28.31;53.28
60258;BME280;46115;44.484;11.314;2022-08-06T22:46:43;100367.13;;;28.43;52.22
60258;BME280;46115;44.484;11.314;2022-08-06T22:50:47;100348.47;;;27.00;55.88
60258;BME280;46115;44.484;11.314;2022-08-06T22:54:53;100342.16;;;27.67;53.67
60258;BME280;46115;44.484;11.314;2022-08-06T22:58:56;100341.47;;;27.94;52.63
60258;BME280;46115;44.484;11.314;2022-08-06T23:02:59;100333.13;;;27.96;52.50
60258;BME280;46115;44.484;11.314;2022-08-06T23:07:01;100330.22;;;27.98;51.88
60258;BME280;46115;44.484;11.314;2022-08-06T23:11:06;100315.00;;;27.82;50.46
60258;BME280;46115;44.484;11.314;2022-08-06T23:15:11;100305.91;;;28.25;47.43
60258;BME280;46115;44.484;11.314;2022-08-06T23:19:13;100324.75;;;28.12;49.34
60258;BME280;46115;44.484;11.314;2022-08-06T23:23:16;100325.47;;;28.21;47.92
60258;BME280;46115;44.484;11.314;2022-08-06T23:27:19;100320.22;;;28.19;47.87
60258;BME280;46115;44.484;11.314;2022-08-06T23:31:22;100318.63;;;27.89;49.90
60258;BME280;46115;44.484;11.314;2022-08-06T23:35:25;100303.38;;;27.58;50.26
60258;BME280;46115;44.484;11.314;2022-08-06T23:39:27;100308.34;;;27.84;49.28
60258;BME280;46115;44.484;11.314;2022-08-06T23:43:32;100317.44;;;27.77;49.52
60258;BME280;46115;44.484;11.314;2022-08-06T23:47:34;100318.75;;;28.17;48.09
60258;BME280;46115;44.484;11.314;2022-08-06T23:51:37;100323.81;;;28.05;48.03
60258;BME280;46115;44.484;11.314;2022-08-06T23:55:40;100325.03;;;28.03;49.57